Time;durP1;ratioP1;P1;durP2;ratioP2;P2;SDS_P1;SDS_P2;PMS_P1;PMS_P2;Temp;Humidity;BMP_temperature;BMP_pressure;BME280_temperature;BME280_humidity;BME280_pressure;Samples;Min_cycle;Max_cycle;Signal;HPM_P1;HPM_P2
2022/06/24 00:01:29;;;;;;;2.75;1.47;;;19.40;83.60;;;;;;1891717;76;21041;-66
2022/06/24 00:03:59;;;;;;;3.12;1.12;;;19.40;83.70;;;;;;1891639;76;21084;-66
2022/06/24 00:06:50;;;;;;;4.42;1.82;;;19.40;83.20;;;;;;1891633;76;21166;-66
2022/06/24 00:09:17;;;;;;;5.47;1.40;;;19.30;82.80;;;;;;1891163;76;21084;-66
2022/06/24 00:11:47;;;;;;;2.60;1.45;;;19.30;83.10;;;;;;1891601;76;21030;-66
2022/06/24 00:14:17;;;;;;;5.95;1.67;;;19.30;83.60;;;;;;1888980;76;21518;-66
2022/06/24 00:17:01;;;;;;;1.77;1.60;;;19.20;83.60;;;;;;1891597;76;21492;-66
2022/06/24 00:19:32;;;;;;;2.90;1.60;;;19.30;83.90;;;;;;1891655;76;21037;-67
2022/06/24 00:22:12;;;;;;;3.58;3.27;;;19.30;84.20;;;;;;1891603;76;21037;-66
2022/06/24 00:24:42;;;;;;;4.55;3.50;;;19.30;84.30;;;;;;1891748;76;21061;-67
2022/06/24 00:27:24;;;;;;;7.58;3.62;;;19.30;84.50;;;;;;1891746;76;21037;-66
2022/06/24 00:29:55;;;;;;;6.22;3.60;;;19.30;84.60;;;;;;1891511;76;21033;-67
2022/06/24 00:32:32;;;;;;;3.02;2.37;;;19.20;84.80;;;;;;1891640;76;21029;-67
2022/06/24 00:35:15;;;;;;;4.65;2.25;;;19.20;84.70;;;;;;1891527;76;21013;-66
2022/06/24 00:37:47;;;;;;;5.47;2.17;;;19.10;84.40;;;;;;1891577;76;21029;-66
2022/06/24 00:40:19;;;;;;;2.35;1.70;;;19.00;84.50;;;;;;1891578;76;21107;-67
2022/06/24 00:42:48;;;;;;;2.77;1.62;;;19.00;84.90;;;;;;1872848;76;21119;-67
2022/06/24 00:45:29;;;;;;;5.58;2.87;;;19.00;85.30;;;;;;1865449;77;21033;-67
2022/06/24 00:48:00;;;;;;;4.33;2.15;;;19.00;85.50;;;;;;1865229;76;21100;-67
2022/06/24 00:50:32;;;;;;;3.10;1.70;;;19.10;85.40;;;;;;1865298;77;21042;-67
2022/06/24 00:53:03;;;;;;;3.20;2.00;;;19.00;85.10;;;;;;1865406;76;21025;-67
2022/06/24 00:55:34;;;;;;;5.95;2.75;;;19.00;85.10;;;;;;1865394;77;21119;-67
2022/06/24 00:58:04;;;;;;;10.20;2.60;;;19.00;85.50;;;;;;1865335;77;21565;-66
2022/06/24 01:00:35;;;;;;;3.67;1.70;;;19.00;85.70;;;;;;1865402;77;21038;-66
2022/06/24 01:03:06;;;;;;;3.85;1.90;;;19.00;85.70;;;;;;1865322;77;21053;-66
2022/06/24 01:05:35;;;;;;;2.87;1.67;;;19.00;85.80;;;;;;1865412;77;21026;-67
2022/06/24 01:08:09;;;;;;;3.95;1.75;;;19.00;85.50;;;;;;1865460;76;21010;-66
2022/06/24 01:10:39;;;;;;;3.27;1.65;;;19.00;85.30;;;;;;1865440;77;21084;-67
2022/06/24 01:13:09;;;;;;;2.65;1.50;;;19.00;85.20;;;;;;1865197;77;21491;-66
2022/06/24 01:15:39;;;;;;;2.60;1.60;;;19.00;85.20;;;;;;1865134;77;21060;-66
2022/06/24 01:18:08;;;;;;;3.25;1.50;;;19.00;85.50;;;;;;1865221;77;21100;-66
2022/06/24 01:20:38;;;;;;;3.92;2.50;;;19.00;85.30;;;;;;1865312;77;21111;-66
2022/06/24 01:23:08;;;;;;;2.33;1.72;;;19.00;85.30;;;;;;1865395;77;21049;-67
2022/06/24 01:25:37;;;;;;;6.12;2.10;;;18.90;85.20;;;;;;1865326;77;21009;-66
2022/06/24 01:28:07;;;;;;;2.85;1.60;;;18.90;85.10;;;;;;1865285;77;21095;-66
2022/06/24 01:30:36;;;;;;;2.85;2.20;;;18.90;85.20;;;;;;1865206;77;21029;-66
2022/06/24 01:33:06;;;;;;;1.90;1.67;;;18.90;85.40;;;;;;1865273;77;21107;-66
2022/06/24 01:35:35;;;;;;;6.90;2.10;;;18.90;85.60;;;;;;1865310;77;21033;-66
2022/06/24 01:38:05;;;;;;;4.17;2.05;;;19.00;86.00;;;;;;1865310;77;21045;-66
2022/06/24 01:40:34;;;;;;;2.95;2.15;;;18.90;85.90;;;;;;1865157;77;21041;-67
2022/06/24 01:43:04;;;;;;;3.77;2.27;;;19.00;86.00;;;;;;1880011;76;21139;-66
2022/06/24 01:45:33;;;;;;;6.65;4.42;;;19.00;86.10;;;;;;1891484;76;21030;-67
2022/06/24 01:48:02;;;;;;;5.10;3.72;;;19.00;86.00;;;;;;1891599;76;21045;-67
2022/06/24 01:50:32;;;;;;;4.85;3.77;;;19.00;86.10;;;;;;1891517;76;21015;-67
2022/06/24 01:53:01;;;;;;;4.55;2.42;;;19.00;86.30;;;;;;1891580;76;21053;-66
2022/06/24 01:55:30;;;;;;;2.10;1.80;;;19.00;86.50;;;;;;1891531;76;21107;-66
2022/06/24 01:58:00;;;;;;;3.47;2.20;;;19.00;86.40;;;;;;1891586;76;21060;-66
2022/06/24 02:00:28;;;;;;;2.08;1.75;;;19.10;86.40;;;;;;1891460;76;21065;-66
2022/06/24 02:03:03;;;;;;;3.55;1.60;;;19.10;86.50;;;;;;1891585;76;21039;-67
2022/06/24 02:05:38;;;;;;;1.70;1.42;;;19.10;86.40;;;;;;1862732;76;21083;-67
2022/06/24 02:08:08;;;;;;;3.15;1.67;;;19.10;86.10;;;;;;1822229;79;21046;-66
2022/06/24 02:13:28;;;;;;;2.95;1.47;;;19.10;86.20;;;;;;1859826;77;21107;-67
2022/06/24 02:16:03;;;;;;;1.67;1.40;;;19.10;86.20;;;;;;1859976;77;21037;-66
2022/06/24 02:18:33;;;;;;;1.65;1.40;;;19.10;86.20;;;;;;1860003;77;21052;-66
2022/06/24 02:21:03;;;;;;;3.72;1.42;;;19.00;85.90;;;;;;1859867;77;21110;-66
2022/06/24 02:23:32;;;;;;;3.10;1.65;;;19.00;85.80;;;;;;1859848;77;21143;-66
2022/06/24 02:26:01;;;;;;;1.75;1.30;;;18.90;85.90;;;;;;1859915;77;21435;-66
2022/06/24 02:28:31;;;;;;;3.80;1.52;;;18.80;86.10;;;;;;1859965;77;21087;-66
2022/06/24 02:31:01;;;;;;;2.25;1.40;;;18.90;86.30;;;;;;1859845;77;21044;-67
2022/06/24 02:33:31;;;;;;;3.35;1.22;;;18.80;86.40;;;;;;1859888;77;21146;-66
2022/06/24 02:36:00;;;;;;;2.25;1.42;;;18.90;86.50;;;;;;1859805;77;21107;-67
2022/06/24 02:38:29;;;;;;;1.35;1.25;;;18.90;86.40;;;;;;1859924;77;21017;-66
2022/06/24 02:40:59;;;;;;;2.00;1.15;;;18.90;86.20;;;;;;1859784;77;21108;-66
2022/06/24 02:43:33;;;;;;;2.83;2.55;;;18.90;86.50;;;;;;1860037;77;21132;-66
2022/06/24 02:46:10;;;;;;;2.17;1.82;;;19.00;86.60;;;;;;1859934;77;21123;-66
2022/06/24 02:48:41;;;;;;;1.85;1.42;;;19.00;86.40;;;;;;1860327;77;21053;-66
2022/06/24 02:51:12;;;;;;;1.35;1.17;;;19.10;86.00;;;;;;1859778;77;21096;-66
2022/06/24 02:53:43;;;;;;;2.27;1.55;;;19.20;85.80;;;;;;1859993;77;21049;-66
2022/06/24 02:56:14;;;;;;;1.00;0.90;;;19.30;85.40;;;;;;1859942;77;21045;-66
2022/06/24 02:58:44;;;;;;;2.30;1.15;;;19.30;84.80;;;;;;1859848;77;21110;-66
2022/06/24 03:01:13;;;;;;;1.32;1.12;;;19.30;84.20;;;;;;1859762;77;21024;-66
2022/06/24 03:03:43;;;;;;;2.50;1.00;;;19.20;83.40;;;;;;1859913;77;21102;-66
2022/06/24 03:06:13;;;;;;;1.35;0.93;;;19.20;83.70;;;;;;1853647;76;21065;-66
2022/06/24 03:08:43;;;;;;;1.30;1.20;;;19.10;83.80;;;;;;1853609;77;21030;-66
2022/06/24 03:11:13;;;;;;;3.10;1.20;;;19.10;84.30;;;;;;1853496;77;21050;-66
2022/06/24 03:13:43;;;;;;;1.92;1.10;;;19.10;84.50;;;;;;1853520;77;21100;-66
2022/06/24 03:16:12;;;;;;;4.35;1.20;;;19.20;84.40;;;;;;1853495;77;21009;-66
2022/06/24 03:18:42;;;;;;;1.07;0.98;;;19.40;84.40;;;;;;1853608;77;21115;-66
2022/06/24 03:21:11;;;;;;;3.08;1.10;;;19.40;84.10;;;;;;1853611;77;21053;-66
2022/06/24 03:23:40;;;;;;;2.42;1.10;;;19.50;84.10;;;;;;1853762;77;21077;-66
2022/06/24 03:26:10;;;;;;;1.40;0.90;;;19.60;83.90;;;;;;1853760;77;21037;-66
2022/06/24 03:28:39;;;;;;;1.12;0.90;;;19.60;83.60;;;;;;1853782;77;21131;-66
2022/06/24 03:31:10;;;;;;;1.00;0.80;;;19.70;83.20;;;;;;1853584;77;21049;-66
2022/06/24 03:33:39;;;;;;;1.10;1.00;;;19.80;83.10;;;;;;1853829;77;21583;-66
2022/06/24 03:36:12;;;;;;;1.92;1.02;;;19.90;82.90;;;;;;1853679;77;21045;-66
2022/06/24 03:38:42;;;;;;;2.72;0.95;;;20.00;82.40;;;;;;1853701;77;21026;-66
2022/06/24 03:41:11;;;;;;;2.75;1.10;;;20.00;81.90;;;;;;1853730;77;21093;-66
2022/06/24 03:43:41;;;;;;;1.82;0.90;;;20.10;82.00;;;;;;1853748;77;21085;-66
2022/06/24 03:46:10;;;;;;;3.67;3.02;;;20.20;81.60;;;;;;1853709;77;21021;-66
2022/06/24 03:48:39;;;;;;;2.58;0.90;;;20.30;81.60;;;;;;1853676;77;21045;-66
2022/06/24 03:51:08;;;;;;;2.83;0.88;;;20.40;81.40;;;;;;1853695;77;21045;-66
2022/06/24 03:53:37;;;;;;;0.85;0.75;;;20.40;81.30;;;;;;1853787;77;21468;-66
2022/06/24 03:56:08;;;;;;;1.82;0.90;;;20.50;81.00;;;;;;1853712;77;21041;-66
2022/06/24 03:58:38;;;;;;;3.40;0.75;;;20.60;80.90;;;;;;1853810;77;21041;-66
2022/06/24 04:01:07;;;;;;;1.65;0.95;;;20.70;80.50;;;;;;1853780;77;21050;-66
2022/06/24 04:03:37;;;;;;;1.85;0.93;;;20.70;80.40;;;;;;1853647;77;21045;-66
2022/06/24 04:06:07;;;;;;;1.42;1.00;;;20.80;80.50;;;;;;1853564;76;21139;-66
2022/06/24 04:08:36;;;;;;;3.12;0.90;;;20.90;80.40;;;;;;1853694;77;21014;-66
2022/06/24 04:11:13;;;;;;;1.40;0.90;;;20.90;79.80;;;;;;1853563;77;21041;-66
2022/06/24 04:13:43;;;;;;;3.35;2.17;;;21.00;79.70;;;;;;1853530;76;21017;-66
2022/06/24 04:16:12;;;;;;;1.60;1.35;;;20.90;79.20;;;;;;1853549;77;21115;-66
2022/06/24 04:18:42;;;;;;;3.95;1.50;;;20.90;79.30;;;;;;1853635;77;21150;-65
2022/06/24 04:21:15;;;;;;;2.35;1.35;;;20.80;79.20;;;;;;1853515;77;21077;-65
2022/06/24 04:23:45;;;;;;;5.37;3.37;;;20.80;79.10;;;;;;1853597;77;21042;-65
2022/06/24 04:26:14;;;;;;;3.62;1.30;;;20.70;79.10;;;;;;1853835;77;21041;-66
2022/06/24 04:28:43;;;;;;;0.90;0.75;;;20.70;79.10;;;;;;1853674;77;21115;-65
2022/06/24 04:31:13;;;;;;;1.65;1.15;;;20.70;79.10;;;;;;1853596;77;21053;-65
2022/06/24 04:33:43;;;;;;;4.40;1.10;;;20.70;79.20;;;;;;1853734;77;21116;-65
2022/06/24 04:36:13;;;;;;;1.20;1.10;;;20.60;78.90;;;;;;1853611;77;21045;-65
2022/06/24 04:38:44;;;;;;;7.53;6.92;;;20.60;78.80;;;;;;1853737;77;21040;-66
2022/06/24 04:41:14;;;;;;;8.10;2.10;;;20.60;78.90;;;;;;1853791;77;21087;-65
2022/06/24 04:43:43;;;;;;;2.35;1.65;;;20.60;78.80;;;;;;1853820;77;21037;-65
2022/06/24 04:46:12;;;;;;;2.20;1.10;;;20.60;79.10;;;;;;1853574;77;21025;-64
2022/06/24 04:48:42;;;;;;;1.00;0.75;;;20.80;79.10;;;;;;1853591;77;21119;-65
2022/06/24 04:51:13;;;;;;;1.70;0.93;;;20.90;78.20;;;;;;1853504;77;21037;-65
2022/06/24 04:53:42;;;;;;;1.98;1.20;;;21.00;77.50;;;;;;1853269;77;21103;-65
2022/06/24 04:56:12;;;;;;;1.75;1.22;;;21.10;76.90;;;;;;1853661;77;21073;-64
2022/06/24 04:58:41;;;;;;;1.50;1.00;;;21.20;76.60;;;;;;1853548;77;21088;-65
2022/06/24 05:01:11;;;;;;;2.08;0.93;;;21.10;76.40;;;;;;1853659;77;21030;-65
2022/06/24 05:03:40;;;;;;;2.37;1.72;;;21.10;76.50;;;;;;1853565;77;21103;-65
2022/06/24 05:06:10;;;;;;;1.75;1.62;;;21.00;76.50;;;;;;1848196;77;21128;-65
2022/06/24 05:08:39;;;;;;;1.57;1.20;;;21.00;76.70;;;;;;1841547;78;21014;-65
2022/06/24 05:11:08;;;;;;;2.30;1.15;;;20.90;77.10;;;;;;1841371;78;21038;-65
2022/06/24 05:13:38;;;;;;;5.12;1.40;;;20.90;77.20;;;;;;1841343;78;21108;-65
2022/06/24 05:16:07;;;;;;;2.05;1.22;;;20.90;77.10;;;;;;1841510;78;21034;-65
2022/06/24 05:18:37;;;;;;;2.92;1.30;;;20.90;76.80;;;;;;1841519;78;21038;-65
2022/06/24 05:21:06;;;;;;;1.82;1.00;;;20.90;76.90;;;;;;1841469;78;21014;-65
2022/06/24 05:23:35;;;;;;;10.90;2.25;;;20.90;76.80;;;;;;1841512;78;21092;-65
2022/06/24 05:26:05;;;;;;;3.17;1.40;;;20.90;77.10;;;;;;1841383;78;21038;-65
2022/06/24 05:28:35;;;;;;;1.95;0.93;;;21.00;77.20;;;;;;1841347;78;21104;-65
2022/06/24 05:31:05;;;;;;;6.47;1.50;;;21.00;77.30;;;;;;1841251;78;21029;-65
2022/06/24 05:33:34;;;;;;;3.08;1.20;;;21.10;77.20;;;;;;1841242;78;21038;-65
2022/06/24 05:36:04;;;;;;;2.05;1.12;;;21.20;77.00;;;;;;1841593;78;21057;-65
2022/06/24 05:38:33;;;;;;;1.70;0.80;;;21.30;76.90;;;;;;1841492;78;21148;-65
2022/06/24 05:41:04;;;;;;;1.65;1.30;;;21.30;76.70;;;;;;1841471;78;21054;-65
2022/06/24 05:43:33;;;;;;;3.65;1.60;;;21.30;76.70;;;;;;1841389;78;21136;-65
2022/06/24 05:46:02;;;;;;;2.20;1.47;;;21.30;76.60;;;;;;1841535;78;21046;-65
2022/06/24 05:48:32;;;;;;;3.70;1.22;;;21.30;76.00;;;;;;1841447;78;21472;-65
2022/06/24 05:51:02;;;;;;;3.17;1.45;;;21.30;75.80;;;;;;1841283;78;21159;-65
2022/06/24 05:56:19;;;;;;;3.92;2.50;;;21.40;75.40;;;;;;1841441;78;21120;-65
2022/06/24 05:58:49;;;;;;;5.90;1.57;;;21.50;74.90;;;;;;1841341;78;21050;-64
2022/06/24 06:01:18;;;;;;;4.08;1.47;;;21.60;74.80;;;;;;1841271;78;21055;-65
2022/06/24 06:03:48;;;;;;;1.50;1.40;;;21.70;74.00;;;;;;1841402;78;21119;-65
2022/06/24 06:06:18;;;;;;;1.72;1.17;;;21.90;73.50;;;;;;1841349;76;21065;-65
2022/06/24 06:08:47;;;;;;;6.62;1.90;;;22.10;73.40;;;;;;1841313;78;21038;-65
2022/06/24 06:11:20;;;;;;;1.60;1.37;;;22.30;73.30;;;;;;1841434;78;21201;-65
2022/06/24 06:13:51;;;;;;;2.85;1.40;;;22.30;72.70;;;;;;1841291;78;21179;-65
2022/06/24 06:16:22;;;;;;;1.85;1.42;;;22.50;72.40;;;;;;1841396;78;21121;-65
2022/06/24 06:18:52;;;;;;;2.15;1.27;;;22.60;72.20;;;;;;1841415;78;21108;-65
2022/06/24 06:21:21;;;;;;;3.55;1.50;;;22.70;71.90;;;;;;1841305;78;21018;-65
2022/06/24 06:23:50;;;;;;;2.98;1.52;;;22.70;71.70;;;;;;1841325;78;21014;-65
2022/06/24 06:26:19;;;;;;;3.92;1.50;;;22.90;71.40;;;;;;1841324;78;21042;-65
2022/06/24 06:28:49;;;;;;;1.47;1.37;;;22.90;70.30;;;;;;1841329;78;21009;-65
2022/06/24 06:31:18;;;;;;;4.72;1.25;;;23.00;69.70;;;;;;1841265;78;21038;-65
2022/06/24 06:33:47;;;;;;;2.08;1.40;;;23.10;69.60;;;;;;1841491;78;21038;-65
2022/06/24 06:36:17;;;;;;;2.37;1.47;;;23.10;69.70;;;;;;1841337;78;21041;-65
2022/06/24 06:38:46;;;;;;;2.25;1.42;;;23.20;69.70;;;;;;1841396;78;21112;-65
2022/06/24 06:41:19;;;;;;;2.33;2.12;;;23.20;69.30;;;;;;1841338;78;21018;-65
2022/06/24 06:43:49;;;;;;;3.90;1.50;;;23.30;68.70;;;;;;1841615;78;21070;-65
2022/06/24 06:46:19;;;;;;;1.60;1.20;;;23.40;67.80;;;;;;1841546;78;21040;-65
2022/06/24 06:48:48;;;;;;;3.12;1.77;;;23.40;68.20;;;;;;1841334;78;21062;-65
2022/06/24 06:51:18;;;;;;;3.12;1.98;;;23.50;68.10;;;;;;1841366;78;21120;-65
2022/06/24 06:53:47;;;;;;;3.95;2.67;;;23.60;67.30;;;;;;1841328;78;21116;-65
2022/06/24 06:56:16;;;;;;;4.40;1.65;;;23.70;67.50;;;;;;1841384;78;21038;-65
2022/06/24 06:58:46;;;;;;;1.52;1.40;;;23.70;67.50;;;;;;1841391;78;21034;-65
2022/06/24 07:01:15;;;;;;;5.15;1.90;;;23.80;67.10;;;;;;1841371;78;21034;-65
2022/06/24 07:03:44;;;;;;;5.22;1.95;;;23.90;66.60;;;;;;1841377;78;21018;-65
2022/06/24 07:06:14;;;;;;;2.35;1.80;;;23.90;66.00;;;;;;1841521;78;21042;-65
2022/06/24 07:08:44;;;;;;;2.37;1.35;;;24.00;65.10;;;;;;1853604;77;21112;-65
2022/06/24 07:11:13;;;;;;;4.83;1.52;;;23.90;65.50;;;;;;1853657;77;21154;-65
2022/06/24 07:13:43;;;;;;;4.00;1.77;;;24.00;65.60;;;;;;1853676;77;21092;-64
2022/06/24 07:16:13;;;;;;;8.00;2.30;;;24.00;65.50;;;;;;1853525;77;21174;-64
2022/06/24 07:18:42;;;;;;;3.65;1.62;;;24.00;64.90;;;;;;1853576;77;21053;-64
2022/06/24 07:21:16;;;;;;;1.72;1.20;;;24.00;64.60;;;;;;1853616;77;21006;-65
2022/06/24 07:23:46;;;;;;;5.30;1.57;;;24.00;65.10;;;;;;1853706;77;21057;-64
2022/06/24 07:26:16;;;;;;;6.17;1.52;;;24.10;65.20;;;;;;1853600;77;21045;-64
2022/06/24 07:28:46;;;;;;;1.87;1.42;;;24.20;65.30;;;;;;1853622;77;21009;-65
2022/06/24 07:31:19;;;;;;;5.37;1.60;;;24.40;64.60;;;;;;1853619;77;21099;-64
2022/06/24 07:33:49;;;;;;;3.00;1.50;;;24.50;63.40;;;;;;1853858;77;21112;-64
2022/06/24 07:36:18;;;;;;;3.58;1.60;;;24.50;63.10;;;;;;1853525;77;21029;-64
2022/06/24 07:38:48;;;;;;;2.62;1.20;;;24.40;62.80;;;;;;1853551;77;21037;-64
2022/06/24 07:41:17;;;;;;;2.15;1.52;;;24.40;62.70;;;;;;1853468;77;21112;-65
2022/06/24 07:43:46;;;;;;;1.22;1.12;;;24.50;61.60;;;;;;1853521;77;21033;-65
2022/06/24 07:46:16;;;;;;;2.10;1.42;;;24.50;60.60;;;;;;1853635;77;21017;-65
2022/06/24 07:48:46;;;;;;;1.50;1.40;;;24.40;60.50;;;;;;1853640;77;21065;-64
2022/06/24 07:51:17;;;;;;;1.95;1.40;;;24.30;60.80;;;;;;1853458;77;21041;-65
2022/06/24 07:53:47;;;;;;;2.15;1.72;;;24.20;60.70;;;;;;1853399;77;21104;-64
2022/06/24 07:59:05;;;;;;;2.72;1.77;;;24.10;60.90;;;;;;1852912;77;21211;-58
2022/06/24 08:01:34;;;;;;;3.55;1.47;;;24.10;61.90;;;;;;1852481;77;21084;-57
2022/06/24 08:04:10;;;;;;;2.90;1.50;;;24.20;62.10;;;;;;1852917;77;21089;-54
2022/06/24 08:06:45;;;;;;;2.22;1.45;;;24.30;61.80;;;;;;1852810;77;21041;-57
2022/06/24 08:09:13;;;;;;;4.53;1.75;;;24.40;61.60;;;;;;1841614;76;21070;-59
2022/06/24 08:11:43;;;;;;;2.02;1.35;;;24.50;61.90;;;;;;1840964;78;21109;-61
2022/06/24 08:14:13;;;;;;;3.45;2.67;;;24.60;60.30;;;;;;1840814;78;21085;-59
2022/06/24 08:16:43;;;;;;;2.17;1.42;;;24.60;60.40;;;;;;1832429;78;21091;-59
2022/06/24 08:19:13;;;;;;;2.27;1.27;;;24.60;60.30;;;;;;1820881;79;21487;-60
2022/06/24 08:21:42;;;;;;;2.62;1.40;;;24.70;60.20;;;;;;1820673;78;21102;-59
2022/06/24 08:24:13;;;;;;;12.05;1.37;;;24.70;59.30;;;;;;1820876;79;21083;-61
2022/06/24 08:26:43;;;;;;;1.45;1.30;;;24.80;58.90;;;;;;1820832;78;21214;-65
2022/06/24 08:29:13;;;;;;;3.90;1.62;;;24.90;58.80;;;;;;1820574;78;21079;-66
2022/06/24 08:31:42;;;;;;;4.08;1.65;;;25.00;58.40;;;;;;1820834;78;21080;-60
2022/06/24 08:34:12;;;;;;;2.40;1.20;;;25.10;57.70;;;;;;1820870;78;21112;-61
2022/06/24 08:36:41;;;;;;;2.75;1.77;;;25.10;58.20;;;;;;1820609;78;21088;-58
2022/06/24 08:39:11;;;;;;;4.25;2.15;;;25.20;58.50;;;;;;1820677;78;21102;-58
2022/06/24 08:41:41;;;;;;;10.23;1.87;;;25.30;57.90;;;;;;1820449;78;21040;-57
2022/06/24 08:44:11;;;;;;;1.87;1.27;;;25.40;58.30;;;;;;1820603;79;21408;-58
2022/06/24 08:46:43;;;;;;;2.37;1.40;;;25.50;57.90;;;;;;1820717;78;21025;-58
2022/06/24 08:49:13;;;;;;;2.65;1.40;;;25.50;57.70;;;;;;1820659;78;21033;-59
2022/06/24 08:51:42;;;;;;;4.45;1.60;;;25.50;57.90;;;;;;1820554;79;21140;-57
2022/06/24 08:54:13;;;;;;;4.72;2.67;;;25.50;57.50;;;;;;1820745;78;21044;-58
2022/06/24 08:56:42;;;;;;;3.25;1.27;;;25.40;58.00;;;;;;1820653;78;21084;-58
2022/06/24 08:59:12;;;;;;;1.82;1.30;;;25.40;57.90;;;;;;1820644;79;21044;-59
2022/06/24 09:01:42;;;;;;;1.82;1.47;;;25.40;56.90;;;;;;1820939;78;21244;-62
2022/06/24 09:04:12;;;;;;;4.42;2.10;;;25.30;56.90;;;;;;1820781;78;21106;-62
2022/06/24 09:06:42;;;;;;;3.72;1.62;;;25.30;56.70;;;;;;1820631;78;21040;-60
2022/06/24 09:09:13;;;;;;;4.00;1.57;;;25.10;57.50;;;;;;1834681;75;21075;-57
2022/06/24 09:11:43;;;;;;;3.62;1.77;;;25.10;58.20;;;;;;1841698;78;21091;-58
2022/06/24 09:14:12;;;;;;;1.72;1.27;;;25.10;57.70;;;;;;1841801;77;21149;-57
2022/06/24 09:16:42;;;;;;;2.37;1.50;;;25.10;58.00;;;;;;1841803;77;21261;-59
2022/06/24 09:19:14;;;;;;;3.62;1.45;;;25.10;57.60;;;;;;1841554;77;21102;-59
2022/06/24 09:21:44;;;;;;;3.50;1.45;;;25.10;57.70;;;;;;1841737;78;21082;-59
2022/06/24 09:24:15;;;;;;;5.20;1.95;;;25.10;58.30;;;;;;1841673;77;21401;-60
2022/06/24 09:26:45;;;;;;;6.90;1.50;;;25.20;58.20;;;;;;1841779;78;21525;-58
2022/06/24 09:29:16;;;;;;;1.55;1.45;;;25.30;57.40;;;;;;1841407;77;21133;-59
2022/06/24 09:31:46;;;;;;;3.90;1.40;;;25.50;56.60;;;;;;1841653;77;21164;-58
2022/06/24 09:34:17;;;;;;;7.17;1.35;;;25.70;56.70;;;;;;1841763;78;21031;-60
2022/06/24 09:36:48;;;;;;;2.12;1.22;;;25.80;55.80;;;;;;1841594;76;21095;-56
2022/06/24 09:39:17;;;;;;;13.72;2.50;;;25.90;55.60;;;;;;1841521;77;21114;-61
2022/06/24 09:41:48;;;;;;;6.95;1.42;;;25.90;56.10;;;;;;1842052;77;21068;-59
2022/06/24 09:44:18;;;;;;;9.80;1.52;;;26.00;56.20;;;;;;1841582;77;21188;-62
2022/06/24 09:46:48;;;;;;;9.93;2.17;;;26.20;54.70;;;;;;1841828;76;21095;-58
2022/06/24 09:49:18;;;;;;;3.77;1.82;;;26.30;54.30;;;;;;1841486;78;21100;-61
2022/06/24 09:51:47;;;;;;;3.02;1.50;;;26.40;53.90;;;;;;1839320;77;21131;-61
2022/06/24 09:54:17;;;;;;;8.25;1.70;;;26.40;53.30;;;;;;1836747;77;21072;-60
2022/06/24 09:56:48;;;;;;;6.03;2.30;;;26.50;52.50;;;;;;1838029;78;21064;-64
2022/06/24 10:02:06;;;;;;;12.53;1.95;;;26.50;50.90;;;;;;1838180;77;21049;-61
2022/06/24 10:04:36;;;;;;;3.92;1.72;;;26.50;50.80;;;;;;1838191;78;21044;-60
2022/06/24 10:07:06;;;;;;;3.83;1.37;;;26.60;49.80;;;;;;1838183;78;21123;-61
2022/06/24 10:09:36;;;;;;;2.33;1.07;;;26.70;49.40;;;;;;1829811;77;21105;-60
2022/06/24 10:12:07;;;;;;;4.97;1.42;;;26.70;49.40;;;;;;1823542;79;21037;-62
2022/06/24 10:14:36;;;;;;;4.62;1.60;;;26.60;48.50;;;;;;1823650;79;21021;-60
2022/06/24 10:17:06;;;;;;;5.80;1.62;;;26.60;49.10;;;;;;1823509;79;21104;-60
2022/06/24 10:19:36;;;;;;;4.50;1.30;;;26.60;49.50;;;;;;1823397;78;21077;-62
2022/06/24 10:22:06;;;;;;;4.65;1.40;;;26.60;50.30;;;;;;1823716;79;21034;-62
2022/06/24 10:24:42;;;;;;;3.55;1.22;;;26.60;50.40;;;;;;1823595;79;21053;-62
2022/06/24 10:27:12;;;;;;;11.25;1.80;;;26.70;50.00;;;;;;1823631;79;21476;-63
2022/06/24 10:29:41;;;;;;;3.45;1.52;;;26.80;49.20;;;;;;1823607;79;21107;-65
2022/06/24 10:32:10;;;;;;;8.95;1.40;;;26.80;49.00;;;;;;1823687;79;21022;-63
2022/06/24 10:34:42;;;;;;;2.95;1.02;;;26.90;49.60;;;;;;1823752;79;21018;-66
2022/06/24 10:37:23;;;;;;;2.87;1.25;;;27.00;49.80;;;;;;1823810;79;21550;-62
2022/06/24 10:39:57;;;;;;;4.20;1.20;;;27.00;49.20;;;;;;1823789;79;21453;-61
2022/06/24 10:42:30;;;;;;;1.20;1.10;;;27.00;49.20;;;;;;1823612;79;21121;-60
2022/06/24 10:45:03;;;;;;;2.17;1.20;;;26.80;48.10;;;;;;1823721;79;21143;-63
2022/06/24 10:47:38;;;;;;;2.95;1.15;;;26.70;49.20;;;;;;1823809;79;21053;-63
2022/06/24 10:50:14;;;;;;;5.58;1.62;;;26.80;49.90;;;;;;1823709;79;21037;-64
2022/06/24 10:52:51;;;;;;;4.50;1.27;;;26.80;50.20;;;;;;1823700;79;21081;-63
2022/06/24 10:55:28;;;;;;;3.62;1.30;;;26.80;50.00;;;;;;1823779;78;21100;-62
2022/06/24 10:58:09;;;;;;;8.98;1.15;;;26.90;49.80;;;;;;1823480;78;21112;-64
2022/06/24 11:00:48;;;;;;;2.50;1.00;;;27.10;50.20;;;;;;1823577;79;21084;-60
2022/06/24 11:03:14;;;;;;;5.50;1.00;;;27.10;49.30;;;;;;1823149;78;21196;-61
2022/06/24 11:05:45;;;;;;;0.90;0.72;;;27.10;48.30;;;;;;1823764;79;21109;-59
2022/06/24 11:08:19;;;;;;;2.75;1.30;;;27.10;48.10;;;;;;1823863;78;21159;-61
2022/06/24 11:10:49;;;;;;;1.82;1.10;;;27.10;47.90;;;;;;1823857;77;21123;-59
2022/06/24 11:13:25;;;;;;;2.95;1.10;;;27.00;48.10;;;;;;1823738;78;21497;-63
2022/06/24 11:15:54;;;;;;;1.15;1.00;;;27.00;48.60;;;;;;1822773;78;21561;-58
2022/06/24 11:18:32;;;;;;;3.50;1.50;;;27.10;49.00;;;;;;1823483;79;21104;-61
2022/06/24 11:21:07;;;;;;;3.37;1.40;;;27.20;48.30;;;;;;1823347;78;21124;-61
2022/06/24 11:23:39;;;;;;;1.55;1.02;;;27.20;48.30;;;;;;1823648;79;21069;-61
2022/06/24 11:26:16;;;;;;;2.55;1.30;;;27.30;48.10;;;;;;1823401;79;21097;-58
2022/06/24 11:28:54;;;;;;;5.03;3.92;;;27.30;48.00;;;;;;1824333;79;21480;-58
2022/06/24 11:31:25;;;;;;;3.22;1.12;;;27.30;47.40;;;;;;1824208;79;21093;-59
2022/06/24 11:34:06;;;;;;;1.15;0.90;;;27.40;46.10;;;;;;1824213;79;21100;-59
2022/06/24 11:36:36;;;;;;;2.50;0.95;;;27.30;46.20;;;;;;1824304;79;21487;-60
2022/06/24 11:39:09;;;;;;;7.10;1.42;;;27.40;46.60;;;;;;1824302;79;21108;-60
2022/06/24 11:41:43;;;;;;;2.85;1.25;;;27.30;45.90;;;;;;1824276;79;21115;-60
2022/06/24 11:44:13;;;;;;;1.65;0.78;;;27.40;45.80;;;;;;1824214;78;21035;-60
2022/06/24 11:46:43;;;;;;;3.65;1.12;;;27.50;44.30;;;;;;1824271;79;21189;-60
2022/06/24 11:49:13;;;;;;;1.07;0.70;;;27.40;43.80;;;;;;1823776;78;21456;-60
2022/06/24 11:51:44;;;;;;;5.55;1.50;;;27.40;43.60;;;;;;1824269;79;21120;-60
2022/06/24 11:54:14;;;;;;;4.10;1.40;;;27.40;43.50;;;;;;1824317;78;21057;-61
2022/06/24 11:56:44;;;;;;;1.20;0.85;;;27.30;43.30;;;;;;1824260;79;21041;-61
2022/06/24 11:59:13;;;;;;;2.50;1.85;;;27.30;42.70;;;;;;1824334;79;21073;-61
2022/06/24 12:01:43;;;;;;;1.40;0.98;;;27.30;43.40;;;;;;1824299;79;21049;-61
2022/06/24 12:04:13;;;;;;;1.20;0.90;;;27.30;43.30;;;;;;1824297;79;21049;-61
2022/06/24 12:06:44;;;;;;;0.93;0.75;;;27.30;43.60;;;;;;1824281;78;21070;-61
2022/06/24 12:09:15;;;;;;;1.00;0.72;;;27.40;43.10;;;;;;1824258;78;21026;-61
2022/06/24 12:11:46;;;;;;;1.15;1.05;;;27.40;42.60;;;;;;1824192;77;21124;-61
2022/06/24 12:14:18;;;;;;;2.22;1.10;;;27.40;42.30;;;;;;1824298;79;21042;-61
2022/06/24 12:17:09;;;;;;;2.90;1.00;;;27.30;41.80;;;;;;1824372;79;21049;-60
2022/06/24 12:19:39;;;;;;;1.20;0.88;;;27.30;41.90;;;;;;1812771;78;21158;-61
2022/06/24 12:22:10;;;;;;;4.67;0.90;;;27.30;42.30;;;;;;1824268;79;21053;-61
2022/06/24 12:24:40;;;;;;;4.15;1.22;;;27.40;42.10;;;;;;1824099;79;21030;-61
2022/06/24 12:27:12;;;;;;;2.15;1.07;;;27.40;42.30;;;;;;1824037;79;21181;-61
2022/06/24 12:29:42;;;;;;;2.67;1.40;;;27.40;42.30;;;;;;1824180;78;21073;-61
2022/06/24 12:32:12;;;;;;;1.62;1.30;;;27.50;42.50;;;;;;1824262;79;21014;-61
2022/06/24 12:34:42;;;;;;;1.12;0.98;;;27.50;42.90;;;;;;1824282;79;21041;-61
2022/06/24 12:37:15;;;;;;;1.47;0.85;;;27.60;42.60;;;;;;1824205;78;21034;-61
2022/06/24 12:39:47;;;;;;;6.03;1.60;;;27.70;42.90;;;;;;1824077;78;21147;-61
2022/06/24 12:42:35;;;;;;;1.10;1.00;;;27.70;42.80;;;;;;1824310;79;21456;-61
2022/06/24 12:45:05;;;;;;;1.40;0.80;;;27.70;42.10;;;;;;1870181;77;21127;-61
2022/06/24 12:50:36;;;;;;;3.62;1.00;;;27.70;41.60;;;;;;1866085;77;21070;-62
2022/06/24 12:53:08;;;;;;;1.55;1.20;;;27.70;42.20;;;;;;1862147;77;21041;-61
2022/06/24 12:55:37;;;;;;;1.15;0.90;;;27.60;42.60;;;;;;1926588;74;21041;-62
2022/06/24 12:58:08;;;;;;;1.77;0.90;;;27.70;43.00;;;;;;1895820;75;21005;-62
2022/06/24 13:00:38;;;;;;;1.05;0.93;;;27.70;43.40;;;;;;1895961;75;21122;-62
2022/06/24 13:03:07;;;;;;;2.10;0.70;;;27.70;42.10;;;;;;1895713;76;21033;-61
2022/06/24 13:05:36;;;;;;;1.72;1.25;;;27.70;41.70;;;;;;1895841;76;21037;-61
2022/06/24 13:08:06;;;;;;;3.35;1.10;;;27.70;41.80;;;;;;1896027;76;21013;-61
2022/06/24 13:10:37;;;;;;;2.77;0.90;;;27.60;41.90;;;;;;1895863;76;21102;-61
2022/06/24 13:13:07;;;;;;;1.00;0.90;;;27.60;42.50;;;;;;1895944;75;21037;-61
2022/06/24 13:15:37;;;;;;;3.65;1.20;;;27.70;42.70;;;;;;1895903;75;21091;-61
2022/06/24 13:18:06;;;;;;;3.90;1.27;;;27.70;43.30;;;;;;1895871;76;21033;-61